Time,TemperatureF,DewpointF,PressureIn,WindDirection,WindDirectionDegrees,WindSpeedMPH,WindSpeedGustMPH,Humidity,HourlyPrecipIn,Conditions,Clouds,dailyrainin,SoftwareType,DateUTC
2013-05-28 00:02:00,78.0,69.0,29.79,SE,142,10.0,18.0,73,0.00,,,0.00,,2013-05-28 05:02:00,
2013-05-28 00:12:00,78.0,69.0,29.79,SE,140,9.0,16.0,73,0.00,,,0.00,,2013-05-28 05:12:00,
2013-05-28 00:22:00,78.0,69.0,29.79,SE,140,9.0,16.0,73,0.00,,,0.00,,2013-05-28 05:22:00,
2013-05-28 00:33:00,78.0,69.0,29.80,SSE,155,5.0,12.0,74,0.00,,,0.00,,2013-05-28 05:33:00,
2013-05-28 00:42:00,78.0,69.0,29.80,SSE,155,5.0,12.0,74,0.00,,,0.00,,2013-05-28 05:42:00,
2013-05-28 00:52:00,78.0,69.0,29.80,SSE,158,7.0,14.0,75,0.00,,,0.00,,2013-05-28 05:52:00,
2013-05-28 01:02:00,77.0,69.0,29.79,SSE,161,10.0,16.0,76,0.00,,,0.00,,2013-05-28 06:02:00,
2013-05-28 01:12:00,77.0,69.0,29.79,SE,139,12.0,20.0,77,0.00,,,0.00,,2013-05-28 06:12:00,
2013-05-28 01:21:00,77.0,69.0,29.79,SE,139,12.0,20.0,77,0.00,,,0.00,,2013-05-28 06:21:00,
2013-05-28 01:31:00,77.0,69.0,29.79,SSE,162,7.0,13.0,77,0.00,,,0.00,,2013-05-28 06:31:00,
2013-05-28 01:41:00,77.0,69.0,29.79,SSE,162,7.0,13.0,77,0.00,,,0.00,,2013-05-28 06:41:00,
2013-05-28 01:52:00,76.0,69.0,29.79,SSE,167,12.0,22.0,78,0.00,,,0.00,,2013-05-28 06:52:00,
2013-05-28 02:01:00,76.0,69.0,29.78,SSE,155,9.0,15.0,79,0.00,,,0.00,,2013-05-28 07:01:00,
2013-05-28 02:11:00,76.0,69.0,29.77,SE,137,13.0,24.0,79,0.00,,,0.00,,2013-05-28 07:11:00,
2013-05-28 02:21:00,76.0,69.0,29.77,SE,137,13.0,24.0,79,0.00,,,0.00,,2013-05-28 07:21:00,
2013-05-28 02:32:00,75.0,68.0,29.77,SSE,151,10.0,22.0,79,0.00,,,0.00,,2013-05-28 07:32:00,
2013-05-28 02:42:00,75.0,68.0,29.77,SSE,151,10.0,22.0,79,0.00,,,0.00,,2013-05-28 07:42:00,
2013-05-28 02:52:00,75.0,68.0,29.76,SE,142,12.0,21.0,79,0.00,,,0.00,,2013-05-28 07:52:00,
2013-05-28 03:02:00,74.0,67.0,29.76,South,172,10.0,22.0,79,0.00,,,0.00,,2013-05-28 08:02:00,
2013-05-28 03:11:00,74.0,67.0,29.75,SSE,159,10.0,18.0,80,0.00,,,0.00,,2013-05-28 08:11:00,
2013-05-28 03:22:00,74.0,67.0,29.75,SSE,159,10.0,18.0,80,0.00,,,0.00,,2013-05-28 08:22:00,
2013-05-28 03:32:00,73.0,67.0,29.75,South,175,12.0,18.0,81,0.00,,,0.00,,2013-05-28 08:32:00,
2013-05-28 03:42:00,73.0,67.0,29.75,South,175,12.0,18.0,81,0.00,,,0.00,,2013-05-28 08:42:00,
2013-05-28 03:52:00,73.0,67.0,29.75,SSE,154,12.0,20.0,82,0.00,,,0.00,,2013-05-28 08:52:00,
2013-05-28 04:01:00,73.0,68.0,29.75,SE,128,10.0,20.0,84,0.00,,,0.00,,2013-05-28 09:01:00,
2013-05-28 04:11:00,72.0,67.0,29.75,SE,144,12.0,20.0,85,0.00,,,0.00,,2013-05-28 09:11:00,
2013-05-28 04:21:00,72.0,67.0,29.75,SE,144,12.0,20.0,85,0.00,,,0.00,,2013-05-28 09:21:00,
2013-05-28 04:33:00,72.0,67.0,29.75,SSE,157,10.0,15.0,85,0.00,,,0.00,,2013-05-28 09:33:00,
2013-05-28 04:42:00,72.0,67.0,29.75,SSE,157,10.0,15.0,85,0.00,,,0.00,,2013-05-28 09:42:00,
2013-05-28 04:54:00,72.0,68.0,29.75,SSE,155,11.0,22.0,86,0.00,,,0.00,,2013-05-28 09:54:00,
2013-05-28 05:03:00,72.0,68.0,29.76,SE,144,12.0,22.0,86,0.00,,,0.00,,2013-05-28 10:03:00,
2013-05-28 05:12:00,72.0,68.0,29.76,SE,144,12.0,22.0,86,0.00,,,0.00,,2013-05-28 10:12:00,
2013-05-28 05:22:00,72.0,68.0,29.76,SSE,150,12.0,22.0,86,0.00,,,0.00,,2013-05-28 10:22:00,
2013-05-28 05:32:00,72.0,68.0,29.76,SE,132,12.0,25.0,86,0.00,,,0.00,,2013-05-28 10:32:00,
2013-05-28 05:42:00,72.0,68.0,29.76,SE,132,12.0,25.0,86,0.00,,,0.00,,2013-05-28 10:42:00,
2013-05-28 05:53:00,72.0,68.0,29.76,SSE,164,11.0,20.0,86,0.00,,,0.00,,2013-05-28 10:53:00,
2013-05-28 06:02:00,72.0,68.0,29.77,SSE,157,8.0,21.0,86,0.00,,,0.00,,2013-05-28 11:02:00,
2013-05-28 06:11:00,72.0,68.0,29.77,SSE,157,8.0,21.0,86,0.00,,,0.00,,2013-05-28 11:11:00,
2013-05-28 06:22:00,72.0,68.0,29.77,South,170,10.0,16.0,87,0.00,,,0.00,,2013-05-28 11:22:00,
2013-05-28 06:32:00,72.0,68.0,29.77,SSE,159,10.0,20.0,86,0.00,,,0.00,,2013-05-28 11:32:00,
2013-05-28 06:42:00,72.0,68.0,29.77,SSE,159,10.0,20.0,86,0.00,,,0.00,,2013-05-28 11:42:00,
2013-05-28 06:52:00,72.0,68.0,29.78,SE,146,10.0,21.0,86,0.00,,,0.00,,2013-05-28 11:52:00,
2013-05-28 07:01:00,72.0,68.0,29.79,SE,144,10.0,18.0,86,0.00,,,0.00,,2013-05-28 12:01:00,
2013-05-28 07:11:00,72.0,68.0,29.79,SSE,147,10.0,18.0,87,0.00,,,0.00,,2013-05-28 12:11:00,
2013-05-28 07:21:00,72.0,68.0,29.79,SSE,147,10.0,18.0,87,0.00,,,0.00,,2013-05-28 12:21:00,
2013-05-28 07:31:00,72.0,68.0,29.80,SSE,147,10.0,16.0,87,0.00,,,0.00,,2013-05-28 12:31:00,
2013-05-28 07:42:00,72.0,68.0,29.80,SSE,147,10.0,16.0,87,0.00,,,0.00,,2013-05-28 12:42:00,
2013-05-28 07:52:00,73.0,69.0,29.80,SE,146,8.0,20.0,87,0.00,,,0.00,,2013-05-28 12:52:00,
2013-05-28 08:01:00,73.0,69.0,29.80,SSE,148,7.0,12.0,86,0.00,,,0.00,,2013-05-28 13:01:00,
2013-05-28 08:11:00,74.0,69.0,29.81,SSE,155,12.0,20.0,85,0.00,,,0.00,,2013-05-28 13:11:00,
2013-05-28 08:21:00,74.0,69.0,29.81,SSE,155,12.0,20.0,85,0.00,,,0.00,,2013-05-28 13:21:00,
2013-05-28 08:32:00,74.0,69.0,29.81,SSE,154,9.0,21.0,85,0.00,,,0.00,,2013-05-28 13:32:00,
2013-05-28 08:42:00,74.0,69.0,29.81,SSE,154,9.0,21.0,85,0.00,,,0.00,,2013-05-28 13:42:00,
2013-05-28 08:52:00,75.0,69.0,29.81,SE,144,13.0,23.0,83,0.00,,,0.00,,2013-05-28 13:52:00,
2013-05-28 09:01:00,75.0,69.0,29.81,SE,143,13.0,23.0,82,0.00,,,0.00,,2013-05-28 14:01:00,
2013-05-28 09:11:00,76.0,70.0,29.81,ESE,109,13.0,23.0,81,0.00,,,0.00,,2013-05-28 14:11:00,
2013-05-28 09:21:00,76.0,70.0,29.81,ESE,109,13.0,23.0,81,0.00,,,0.00,,2013-05-28 14:21:00,
2013-05-28 09:32:00,76.0,69.0,29.81,SSE,148,11.0,24.0,80,0.00,,,0.00,,2013-05-28 14:32:00,
2013-05-28 09:42:00,76.0,69.0,29.81,SSE,148,11.0,24.0,80,0.00,,,0.00,,2013-05-28 14:42:00,
2013-05-28 09:52:00,76.0,69.0,29.81,SSE,168,13.0,22.0,78,0.00,,,0.00,,2013-05-28 14:52:00,
2013-05-28 10:01:00,76.0,69.0,29.81,SSE,168,13.0,22.0,78,0.00,,,0.00,,2013-05-28 15:01:00,
2013-05-28 10:11:00,77.0,70.0,29.82,SE,143,10.0,24.0,78,0.00,,,0.00,,2013-05-28 15:11:00,
2013-05-28 10:21:00,77.0,70.0,29.82,SE,143,10.0,24.0,78,0.00,,,0.00,,2013-05-28 15:21:00,
2013-05-28 10:32:00,77.0,69.0,29.82,SSE,164,13.0,20.0,77,0.00,,,0.00,,2013-05-28 15:32:00,
2013-05-28 10:43:00,77.0,69.0,29.82,SSE,164,13.0,20.0,77,0.00,,,0.00,,2013-05-28 15:43:00,
2013-05-28 10:53:00,78.0,70.0,29.82,SSE,165,11.0,22.0,76,0.00,,,0.00,,2013-05-28 15:53:00,
2013-05-28 11:03:00,78.0,69.0,29.81,SE,133,13.0,26.0,75,0.00,,,0.00,,2013-05-28 16:03:00,
2013-05-28 11:12:00,79.0,69.0,29.82,SSE,155,16.0,25.0,71,0.00,,,0.00,,2013-05-28 16:12:00,
2013-05-28 11:22:00,79.0,69.0,29.82,SSE,155,16.0,25.0,71,0.00,,,0.00,,2013-05-28 16:22:00,
2013-05-28 11:33:00,79.0,69.0,29.82,SSE,156,9.0,21.0,71,0.00,,,0.00,,2013-05-28 16:33:00,
2013-05-28 11:42:00,79.0,69.0,29.82,SSE,156,9.0,21.0,71,0.00,,,0.00,,2013-05-28 16:42:00,
2013-05-28 11:52:00,80.0,68.0,29.83,SSE,162,14.0,32.0,68,0.00,,,0.00,,2013-05-28 16:52:00,
2013-05-28 12:02:00,80.0,68.0,29.83,SSE,151,14.0,30.0,68,0.00,,,0.00,,2013-05-28 17:02:00,
2013-05-28 12:12:00,80.0,68.0,29.83,SSE,151,14.0,30.0,68,0.00,,,0.00,,2013-05-28 17:12:00,
2013-05-28 12:22:00,80.0,68.0,29.83,SSE,151,14.0,30.0,68,0.00,,,0.00,,2013-05-28 17:22:00,
2013-05-28 12:32:00,80.0,68.0,29.83,SE,136,15.0,24.0,67,0.00,,,0.00,,2013-05-28 17:32:00,
2013-05-28 12:42:00,81.0,69.0,29.83,South,178,13.0,23.0,66,0.00,,,0.00,,2013-05-28 17:42:00,
2013-05-28 12:52:00,81.0,69.0,29.83,South,178,13.0,23.0,66,0.00,,,0.00,,2013-05-28 17:52:00,
2013-05-28 13:01:00,82.0,69.0,29.81,SSE,161,18.0,25.0,64,0.00,,,0.00,,2013-05-28 18:01:00,
2013-05-28 13:11:00,82.0,69.0,29.81,SE,132,14.0,24.0,65,0.00,,,0.00,,2013-05-28 18:11:00,
2013-05-28 13:21:00,82.0,69.0,29.81,SE,132,14.0,24.0,65,0.00,,,0.00,,2013-05-28 18:21:00,
2013-05-28 13:32:00,82.0,69.0,29.81,SSE,161,13.0,18.0,65,0.00,,,0.00,,2013-05-28 18:32:00,
2013-05-28 13:42:00,82.0,68.0,29.80,SSE,150,16.0,26.0,63,0.00,,,0.00,,2013-05-28 18:42:00,
2013-05-28 13:52:00,82.0,68.0,29.80,SSE,150,16.0,26.0,63,0.00,,,0.00,,2013-05-28 18:52:00,
2013-05-28 14:01:00,83.0,69.0,29.79,SE,136,8.0,22.0,63,0.00,,,0.00,,2013-05-28 19:01:00,
2013-05-28 14:11:00,83.0,69.0,29.79,SE,136,8.0,22.0,63,0.00,,,0.00,,2013-05-28 19:11:00,
2013-05-28 14:21:00,83.0,69.0,29.79,SE,146,12.0,23.0,63,0.00,,,0.00,,2013-05-28 19:21:00,
2013-05-28 14:32:00,83.0,69.0,29.80,SSE,158,12.0,28.0,62,0.00,,,0.00,,2013-05-28 19:32:00,
2013-05-28 14:41:00,83.0,69.0,29.80,SSE,158,12.0,28.0,62,0.00,,,0.00,,2013-05-28 19:41:00,
2013-05-28 14:52:00,83.0,69.0,29.80,SSE,157,12.0,21.0,62,0.00,,,0.00,,2013-05-28 19:52:00,
2013-05-28 15:01:00,84.0,70.0,29.79,SE,139,13.0,26.0,62,0.00,,,0.00,,2013-05-28 20:01:00,
2013-05-28 15:11:00,83.0,69.0,29.78,SSE,158,10.0,15.0,63,0.00,,,0.00,,2013-05-28 20:11:00,
2013-05-28 15:22:00,83.0,69.0,29.78,SSE,158,10.0,15.0,63,0.00,,,0.00,,2013-05-28 20:22:00,
2013-05-28 15:32:00,83.0,69.0,29.78,South,173,13.0,23.0,63,0.00,,,0.00,,2013-05-28 20:32:00,
2013-05-28 15:42:00,83.0,69.0,29.78,South,173,13.0,23.0,63,0.00,,,0.00,,2013-05-28 20:42:00,
2013-05-28 15:52:00,84.0,70.0,29.78,South,174,7.0,16.0,63,0.00,,,0.00,,2013-05-28 20:52:00,
2013-05-28 16:01:00,85.0,70.0,29.78,South,184,12.0,23.0,61,0.00,,,0.00,,2013-05-28 21:01:00,
2013-05-28 16:11:00,84.0,70.0,29.77,SE,134,9.0,20.0,62,0.00,,,0.00,,2013-05-28 21:11:00,
2013-05-28 16:21:00,84.0,70.0,29.77,SE,134,9.0,20.0,62,0.00,,,0.00,,2013-05-28 21:21:00,
2013-05-28 16:33:00,84.0,69.0,29.76,SE,146,12.0,20.0,61,0.00,,,0.00,,2013-05-28 21:33:00,
2013-05-28 16:43:00,84.0,70.0,29.75,South,169,10.0,20.0,62,0.00,,,0.00,,2013-05-28 21:43:00,
2013-05-28 16:53:00,84.0,70.0,29.75,South,169,10.0,20.0,62,0.00,,,0.00,,2013-05-28 21:53:00,
2013-05-28 17:02:00,84.0,70.0,29.75,SE,134,12.0,21.0,62,0.00,,,0.00,,2013-05-28 22:02:00,
2013-05-28 17:12:00,84.0,70.0,29.74,SE,134,14.0,22.0,62,0.00,,,0.00,,2013-05-28 22:12:00,
2013-05-28 17:22:00,84.0,70.0,29.74,SE,134,14.0,22.0,62,0.00,,,0.00,,2013-05-28 22:22:00,
2013-05-28 17:32:00,84.0,70.0,29.75,SSE,147,6.0,13.0,63,0.00,,,0.00,,2013-05-28 22:32:00,
2013-05-28 17:42:00,84.0,70.0,29.74,SE,142,7.0,20.0,62,0.00,,,0.00,,2013-05-28 22:42:00,
2013-05-28 17:52:00,84.0,70.0,29.74,SE,142,7.0,20.0,62,0.00,,,0.00,,2013-05-28 22:52:00,
2013-05-28 18:02:00,84.0,70.0,29.73,SE,135,12.0,21.0,62,0.00,,,0.00,,2013-05-28 23:02:00,
2013-05-28 18:11:00,84.0,70.0,29.72,SSE,150,14.0,20.0,62,0.00,,,0.00,,2013-05-28 23:11:00,
2013-05-28 18:21:00,84.0,70.0,29.72,SSE,150,14.0,20.0,62,0.00,,,0.00,,2013-05-28 23:21:00,
2013-05-28 18:32:00,84.0,69.0,29.70,SE,143,13.0,20.0,61,0.00,,,0.00,,2013-05-28 23:32:00,
2013-05-28 18:42:00,84.0,69.0,29.70,SE,143,13.0,20.0,61,0.00,,,0.00,,2013-05-28 23:42:00,
2013-05-28 18:52:00,84.0,69.0,29.70,ESE,113,11.0,20.0,61,0.00,,,0.00,,2013-05-28 23:52:00,
2013-05-28 19:02:00,84.0,70.0,29.70,SE,135,9.0,18.0,62,0.00,,,0.00,,2013-05-29 00:02:00,
2013-05-28 19:11:00,84.0,70.0,29.70,SE,135,9.0,18.0,62,0.00,,,0.00,,2013-05-29 00:11:00,
2013-05-28 19:21:00,84.0,70.0,29.70,SE,129,8.0,18.0,62,0.00,,,0.00,,2013-05-29 00:21:00,
2013-05-28 19:32:00,84.0,70.0,29.71,SE,135,10.0,21.0,62,0.00,,,0.00,,2013-05-29 00:32:00,
2013-05-28 19:41:00,84.0,70.0,29.71,SE,135,10.0,21.0,62,0.00,,,0.00,,2013-05-29 00:41:00,
2013-05-28 19:52:00,84.0,70.0,29.71,SE,133,7.0,12.0,62,0.00,,,0.00,,2013-05-29 00:52:00,
2013-05-28 20:01:00,84.0,70.0,29.72,SE,141,9.0,18.0,63,0.00,,,0.00,,2013-05-29 01:01:00,
2013-05-28 20:11:00,83.0,69.0,29.72,SE,136,12.0,23.0,63,0.00,,,0.00,,2013-05-29 01:11:00,
2013-05-28 20:22:00,83.0,69.0,29.72,SE,136,12.0,23.0,63,0.00,,,0.00,,2013-05-29 01:22:00,
2013-05-28 20:32:00,83.0,69.0,29.73,SE,125,12.0,22.0,63,0.00,,,0.00,,2013-05-29 01:32:00,
2013-05-28 20:41:00,83.0,69.0,29.73,SE,125,12.0,22.0,63,0.00,,,0.00,,2013-05-29 01:41:00,
2013-05-28 20:52:00,82.0,69.0,29.73,SE,142,9.0,12.0,64,0.00,,,0.00,,2013-05-29 01:52:00,
2013-05-28 21:02:00,82.0,69.0,29.74,SE,141,6.0,12.0,65,0.00,,,0.00,,2013-05-29 02:02:00,
2013-05-28 21:12:00,81.0,69.0,29.74,SE,137,9.0,12.0,66,0.00,,,0.00,,2013-05-29 02:12:00,
2013-05-28 21:21:00,81.0,69.0,29.74,SE,137,9.0,12.0,66,0.00,,,0.00,,2013-05-29 02:21:00,
2013-05-28 21:32:00,81.0,69.0,29.74,SE,143,7.0,13.0,67,0.00,,,0.00,,2013-05-29 02:32:00,
2013-05-28 21:42:00,81.0,69.0,29.74,SE,137,9.0,14.0,67,0.00,,,0.00,,2013-05-29 02:42:00,
2013-05-28 21:52:00,81.0,69.0,29.74,SE,137,9.0,14.0,67,0.00,,,0.00,,2013-05-29 02:52:00,
2013-05-28 22:02:00,81.0,69.0,29.73,SE,142,10.0,20.0,68,0.00,,,0.00,,2013-05-29 03:02:00,
2013-05-28 22:12:00,81.0,69.0,29.73,SE,142,10.0,20.0,68,0.00,,,0.00,,2013-05-29 03:12:00,
2013-05-28 22:21:00,80.0,69.0,29.73,SE,138,9.0,18.0,69,0.00,,,0.00,,2013-05-29 03:21:00,
2013-05-28 22:33:00,80.0,69.0,29.73,SE,135,12.0,18.0,70,0.00,,,0.00,,2013-05-29 03:33:00,
2013-05-28 22:43:00,80.0,69.0,29.73,SE,135,12.0,18.0,70,0.00,,,0.00,,2013-05-29 03:43:00,
2013-05-28 22:53:00,80.0,70.0,29.72,SE,126,13.0,23.0,71,0.00,,,0.00,,2013-05-29 03:53:00,
2013-05-28 23:02:00,79.0,69.0,29.72,SE,144,13.0,29.0,72,0.00,,,0.00,,2013-05-29 04:02:00,
2013-05-28 23:12:00,79.0,70.0,29.72,SE,136,21.0,31.0,75,0.00,,,0.00,,2013-05-29 04:12:00,
2013-05-28 23:23:00,79.0,70.0,29.72,SE,136,21.0,31.0,75,0.00,,,0.00,,2013-05-29 04:23:00,
2013-05-28 23:33:00,78.0,70.0,29.72,SE,138,12.0,23.0,76,0.00,,,0.00,,2013-05-29 04:33:00,
2013-05-28 23:42:00,78.0,70.0,29.72,SE,138,12.0,23.0,76,0.00,,,0.00,,2013-05-29 04:42:00,
2013-05-28 23:52:00,78.0,70.0,29.72,SE,138,15.0,30.0,77,0.00,,,0.00,,2013-05-29 04:52:00,